Fort Ogden, Florida
Current Conditions -  °F | °C
As of 9:53 PM on Friday 21 Nov 2014 (Local Time) from KPGD Reporting Station
Overcast Overcast  
Wind Chill: 66°   Ceiling: 5500
Heat Index: 66°   Visibility: 10mi
Dew Point: 59°   Wind: 10mph
Humidity: 78%   Direction: 40°NE
Pressure: 30.23"   Gusts: NA
Location:  27.09°N, 81.95°W
Report Text: KPGD 220253Z AUTO 04009KT 10SM FEW040 OVC055 19/15 A3023 RMK AO2 SLP237 60000 T01890150 50002
Loading
Personal Weather Stations






























Interactive Weather Map New forecast layout! Learn more

10-Day Weather Forecast

Advertisements
Track Severe Weather on mobile